Time;durP1;ratioP1;P1;durP2;ratioP2;P2;SDS_P1;SDS_P2;PMS_P1;PMS_P2;Temp;Humidity;BMP_temperature;BMP_pressure;BME280_temperature;BME280_humidity;BME280_pressure;Samples;Min_cycle;Max_cycle;Signal;HPM_P1;HPM_P2
2023/04/19 00:02:12;;;;;;;15.18;12.90;;;9.20;99.90;;;;;;6091460;23;99329;-76
2023/04/19 00:04:39;;;;;;;14.35;11.57;;;9.20;99.90;;;;;;6091161;23;98908;-75
2023/04/19 00:07:06;;;;;;;14.65;10.45;;;9.20;99.90;;;;;;6091822;23;98393;-75
2023/04/19 00:09:33;;;;;;;14.82;11.07;;;9.10;99.90;;;;;;6092170;23;98221;-76
2023/04/19 00:12:00;;;;;;;12.13;10.50;;;9.20;99.90;;;;;;6065002;23;102013;-76
2023/04/19 00:14:27;;;;;;;11.38;9.48;;;9.10;99.90;;;;;;6091380;23;98956;-76
2023/04/19 00:16:54;;;;;;;11.85;9.07;;;9.10;99.90;;;;;;6066258;23;99290;-76
2023/04/19 00:19:24;;;;;;;16.80;9.63;;;9.10;99.90;;;;;;6041963;23;99008;-76
2023/04/19 00:21:51;;;;;;;11.02;8.55;;;9.00;99.90;;;;;;6066127;23;102403;-76
2023/04/19 00:24:19;;;;;;;10.73;8.98;;;9.00;99.90;;;;;;6091558;23;107759;-76
2023/04/19 00:26:46;;;;;;;11.23;8.80;;;9.00;99.90;;;;;;6092409;23;98394;-76
2023/04/19 00:29:12;;;;;;;9.93;7.82;;;9.00;99.90;;;;;;6066033;23;98559;-76
2023/04/19 00:31:39;;;;;;;11.48;9.00;;;8.90;99.90;;;;;;6091724;23;99826;-76
2023/04/19 00:34:07;;;;;;;9.50;7.07;;;9.00;99.90;;;;;;6066638;23;98942;-76
2023/04/19 00:36:34;;;;;;;11.63;8.45;;;8.90;99.90;;;;;;6092128;23;98501;-76
2023/04/19 00:39:01;;;;;;;12.88;8.02;;;8.90;99.90;;;;;;6065888;23;98528;-76
2023/04/19 00:41:27;;;;;;;8.60;7.53;;;8.90;99.90;;;;;;6040938;23;102937;-76
2023/04/19 00:43:56;;;;;;;9.90;7.70;;;8.90;99.90;;;;;;6065560;23;102265;-76
2023/04/19 00:46:24;;;;;;;11.68;7.88;;;8.90;99.90;;;;;;6066093;23;98585;-76
2023/04/19 00:48:51;;;;;;;10.77;7.65;;;8.80;99.90;;;;;;6066110;23;98693;-76
2023/04/19 00:51:19;;;;;;;8.00;7.20;;;8.80;99.90;;;;;;6065266;23;106361;-76
2023/04/19 00:53:46;;;;;;;10.82;8.85;;;8.70;99.90;;;;;;6041109;23;101530;-76
2023/04/19 00:56:14;;;;;;;10.38;7.95;;;8.70;99.90;;;;;;6066168;23;98624;-76
2023/04/19 00:58:41;;;;;;;11.25;7.68;;;8.70;99.90;;;;;;6092713;23;97710;-76
2023/04/19 01:01:08;;;;;;;8.70;7.80;;;8.60;99.90;;;;;;6065753;23;101963;-75
2023/04/19 01:03:35;;;;;;;8.95;7.93;;;8.60;99.90;;;;;;6091914;23;99160;-76
2023/04/19 01:06:02;;;;;;;9.57;8.00;;;8.60;99.90;;;;;;6041891;23;99234;-76
2023/04/19 01:08:29;;;;;;;10.80;7.70;;;8.50;99.90;;;;;;6041441;23;98570;-75
2023/04/19 01:10:56;;;;;;;9.70;7.40;;;8.50;99.90;;;;;;6091676;23;100396;-76
2023/04/19 01:13:23;;;;;;;10.65;8.18;;;8.50;99.90;;;;;;6091707;23;101950;-76
2023/04/19 01:15:50;;;;;;;11.38;8.35;;;8.50;99.90;;;;;;6092155;23;98416;-76
2023/04/19 01:18:20;;;;;;;10.73;7.60;;;8.40;99.90;;;;;;6092298;23;99030;-76
2023/04/19 01:20:47;;;;;;;11.93;8.68;;;8.40;99.90;;;;;;6065001;23;101843;-76
2023/04/19 01:23:14;;;;;;;11.00;9.25;;;8.30;99.90;;;;;;6066198;23;101473;-76
2023/04/19 01:25:41;;;;;;;11.05;8.55;;;8.30;99.90;;;;;;6066134;23;99011;-75
2023/04/19 01:28:08;;;;;;;10.95;9.00;;;8.30;99.90;;;;;;6041846;23;98594;-76
2023/04/19 01:30:36;;;;;;;9.63;7.95;;;8.30;99.90;;;;;;6089104;23;102648;-76
2023/04/19 01:33:03;;;;;;;11.65;8.93;;;8.30;99.90;;;;;;6091792;23;100220;-76
2023/04/19 01:35:30;;;;;;;11.77;9.73;;;8.20;99.90;;;;;;6041499;23;98514;-76
2023/04/19 01:37:57;;;;;;;14.00;9.88;;;8.20;99.90;;;;;;6065814;23;98561;-75
2023/04/19 01:40:25;;;;;;;13.50;10.15;;;8.20;99.90;;;;;;6065801;23;102103;-76
2023/04/19 01:42:52;;;;;;;13.50;10.57;;;8.10;99.90;;;;;;6040386;23;106916;-76
2023/04/19 01:45:19;;;;;;;12.88;10.02;;;8.10;99.90;;;;;;6091448;23;98461;-76
2023/04/19 01:47:50;;;;;;;17.75;11.65;;;8.10;99.90;;;;;;6041934;23;97860;-76
2023/04/19 01:50:17;;;;;;;16.08;11.82;;;8.00;99.90;;;;;;6065043;23;99239;-75
2023/04/19 01:52:44;;;;;;;17.92;11.07;;;8.00;99.90;;;;;;6064304;23;101771;-75
2023/04/19 01:55:10;;;;;;;13.20;10.18;;;8.00;99.90;;;;;;6065005;23;99660;-75
2023/04/19 01:57:37;;;;;;;18.50;10.95;;;7.90;99.90;;;;;;6064884;23;98452;-76
2023/04/19 02:00:05;;;;;;;13.60;11.18;;;7.90;99.90;;;;;;6064559;23;101698;-75
2023/04/19 02:02:40;;;;;;;14.80;10.43;;;7.90;99.90;;;;;;6090689;23;98606;-75
2023/04/19 02:05:08;;;;;;;16.02;11.20;;;7.80;99.90;;;;;;6041148;23;99313;-76
2023/04/19 02:07:35;;;;;;;17.30;11.02;;;7.80;99.90;;;;;;6040394;23;98590;-75
2023/04/19 02:10:02;;;;;;;15.68;10.82;;;7.80;99.90;;;;;;6064475;23;101733;-75
2023/04/19 02:12:30;;;;;;;14.55;11.73;;;7.70;99.90;;;;;;6064564;23;101499;-76
2023/04/19 02:14:58;;;;;;;14.10;11.07;;;7.70;99.90;;;;;;6040721;23;98771;-76
2023/04/19 02:17:33;;;;;;;12.50;8.93;;;7.70;99.90;;;;;;6065140;23;98529;-75
2023/04/19 02:20:00;;;;;;;15.18;10.68;;;7.60;99.90;;;;;;6090909;23;100102;-76
2023/04/19 02:22:28;;;;;;;14.65;11.02;;;7.60;99.90;;;;;;6064290;23;102523;-76
2023/04/19 02:24:55;;;;;;;16.05;11.60;;;7.60;99.90;;;;;;6065293;23;99149;-76
2023/04/19 02:27:28;;;;;;;13.75;12.00;;;7.60;99.90;;;;;;6042292;23;98531;-76
2023/04/19 02:29:55;;;;;;;15.02;10.13;;;7.60;99.90;;;;;;6040252;23;102104;-75
2023/04/19 02:32:23;;;;;;;16.15;10.77;;;7.60;99.90;;;;;;6040636;23;101681;-75
2023/04/19 02:34:50;;;;;;;17.13;10.80;;;7.50;99.90;;;;;;6040542;23;98514;-75
2023/04/19 02:37:17;;;;;;;15.93;11.63;;;7.50;99.90;;;;;;6041198;23;97891;-75
2023/04/19 02:39:45;;;;;;;15.23;10.25;;;7.50;99.90;;;;;;6058322;23;99241;-75
2023/04/19 02:42:12;;;;;;;13.30;9.20;;;7.50;99.90;;;;;;6035211;23;101660;-76
2023/04/19 02:44:39;;;;;;;12.95;10.27;;;7.40;99.90;;;;;;6059847;23;99184;-76
2023/04/19 02:47:06;;;;;;;11.75;8.98;;;7.40;99.90;;;;;;6060088;23;98502;-75
2023/04/19 02:49:35;;;;;;;14.18;9.88;;;7.40;99.90;;;;;;6059963;23;101805;-75
2023/04/19 02:52:03;;;;;;;10.00;8.63;;;7.40;99.90;;;;;;6059825;23;101425;-75
2023/04/19 02:54:32;;;;;;;12.02;8.63;;;7.40;99.90;;;;;;6060379;23;98550;-75
2023/04/19 02:56:59;;;;;;;9.73;8.73;;;7.40;99.90;;;;;;6060265;23;98955;-75
2023/04/19 02:59:27;;;;;;;10.23;7.38;;;7.40;99.90;;;;;;6059788;23;101105;-75
2023/04/19 03:01:56;;;;;;;15.43;8.88;;;7.40;99.90;;;;;;6036503;23;100909;-75
2023/04/19 03:04:24;;;;;;;10.07;7.13;;;7.30;99.90;;;;;;6060524;23;98554;-75
2023/04/19 03:06:52;;;;;;;9.90;7.68;;;7.30;99.90;;;;;;6061802;23;98540;-75
2023/04/19 03:09:20;;;;;;;11.48;8.80;;;7.20;99.90;;;;;;6059253;23;102241;-75
2023/04/19 03:11:46;;;;;;;12.93;8.65;;;7.20;99.90;;;;;;6059438;23;102225;-75
2023/04/19 03:14:15;;;;;;;12.63;8.05;;;7.20;99.90;;;;;;6060371;23;98908;-75
2023/04/19 03:16:42;;;;;;;11.15;8.05;;;7.20;99.90;;;;;;6035872;23;98563;-75
2023/04/19 03:19:09;;;;;;;10.90;9.05;;;7.20;99.90;;;;;;6060517;23;101579;-76
2023/04/19 03:21:44;;;;;;;12.10;8.48;;;7.10;99.90;;;;;;6061131;23;101440;-75
2023/04/19 03:24:11;;;;;;;11.20;7.93;;;7.10;99.90;;;;;;6037459;23;98430;-76
2023/04/19 03:26:42;;;;;;;10.73;7.68;;;7.10;99.90;;;;;;6038966;23;97750;-75
2023/04/19 03:29:10;;;;;;;10.63;8.10;;;7.10;99.90;;;;;;6061064;23;101107;-75
2023/04/19 03:32:15;;;;;;;11.10;8.00;;;7.00;99.90;;;;;;6053591;23;99638;-75
2023/04/19 03:34:42;;;;;;;9.93;7.30;;;7.00;99.90;;;;;;6037155;23;99367;-75
2023/04/19 03:37:10;;;;;;;9.13;8.07;;;6.90;99.90;;;;;;6061492;23;98485;-75
2023/04/19 03:39:38;;;;;;;9.07;8.02;;;6.90;99.90;;;;;;6061127;23;101532;-75
2023/04/19 03:42:08;;;;;;;11.32;7.93;;;6.90;99.90;;;;;;6061518;23;99988;-75
2023/04/19 03:44:42;;;;;;;10.85;8.30;;;6.90;99.90;;;;;;6061380;23;99108;-75
2023/04/19 03:47:10;;;;;;;11.98;8.48;;;6.90;99.90;;;;;;6061474;23;99100;-75
2023/04/19 03:49:43;;;;;;;9.70;7.40;;;6.80;99.90;;;;;;6037961;23;101135;-75
2023/04/19 03:52:11;;;;;;;9.80;8.00;;;6.70;99.90;;;;;;6061422;23;101726;-75
2023/04/19 03:54:38;;;;;;;11.65;7.90;;;6.70;99.90;;;;;;6063245;23;98395;-75
2023/04/19 03:57:12;;;;;;;9.43;7.60;;;6.70;99.90;;;;;;6061007;23;98581;-75
2023/04/19 03:59:39;;;;;;;9.23;6.82;;;6.70;99.90;;;;;;6060532;23;102239;-75
2023/04/19 04:02:07;;;;;;;8.57;7.53;;;6.60;99.90;;;;;;6036604;23;101901;-75
2023/04/19 04:04:35;;;;;;;9.70;7.60;;;6.60;99.90;;;;;;6061458;23;98583;-75
2023/04/19 04:07:02;;;;;;;8.65;7.40;;;6.60;99.90;;;;;;6061223;23;98603;-75
2023/04/19 04:09:29;;;;;;;9.10;6.75;;;6.50;99.90;;;;;;6060936;23;101863;-75
2023/04/19 04:11:56;;;;;;;10.32;6.90;;;6.50;99.90;;;;;;6062327;23;98645;-75
2023/04/19 04:14:23;;;;;;;9.65;7.00;;;6.50;99.90;;;;;;6061755;23;99353;-75
2023/04/19 04:16:50;;;;;;;8.70;7.78;;;6.40;99.90;;;;;;6061606;23;97823;-75
2023/04/19 04:19:20;;;;;;;9.90;7.68;;;6.40;99.90;;;;;;6060844;23;101789;-75
2023/04/19 04:21:48;;;;;;;11.65;8.25;;;6.40;99.90;;;;;;6060707;23;99824;-75
2023/04/19 04:24:16;;;;;;;10.10;7.43;;;6.40;99.90;;;;;;6060932;23;99718;-75
2023/04/19 04:27:08;;;;;;;8.05;6.63;;;6.40;99.90;;;;;;6062668;23;98467;-75
2023/04/19 04:29:38;;;;;;;9.32;7.30;;;6.40;99.90;;;;;;6061056;23;101769;-75
2023/04/19 04:32:09;;;;;;;8.57;6.45;;;6.30;99.90;;;;;;6036502;23;101253;-75
2023/04/19 04:34:39;;;;;;;8.93;7.20;;;6.40;99.90;;;;;;6061551;23;98465;-75
2023/04/19 04:37:11;;;;;;;8.15;6.43;;;6.30;99.90;;;;;;6061067;23;98936;-75
2023/04/19 04:39:39;;;;;;;8.63;7.50;;;6.30;99.90;;;;;;6060433;23;101453;-75
2023/04/19 04:42:08;;;;;;;9.48;6.25;;;6.30;99.90;;;;;;6060876;23;101092;-75
2023/04/19 04:44:36;;;;;;;9.70;6.60;;;6.30;99.90;;;;;;6086101;23;98556;-75
2023/04/19 04:47:03;;;;;;;8.60;7.18;;;6.30;99.90;;;;;;6060915;23;99058;-75
2023/04/19 04:49:36;;;;;;;9.18;7.30;;;6.30;99.90;;;;;;6060494;23;102261;-75
2023/04/19 04:52:03;;;;;;;8.23;6.10;;;6.30;99.90;;;;;;6036283;23;102164;-75
2023/04/19 04:54:35;;;;;;;10.70;6.82;;;6.40;99.90;;;;;;6061645;23;99023;-75
2023/04/19 04:57:05;;;;;;;8.82;6.78;;;6.40;99.90;;;;;;6060743;23;98517;-75
2023/04/19 04:59:32;;;;;;;9.57;7.00;;;6.40;99.90;;;;;;6060746;23;101606;-75
2023/04/19 05:01:59;;;;;;;8.27;6.88;;;6.40;99.90;;;;;;6062167;23;99047;-75
2023/04/19 05:04:26;;;;;;;9.30;6.53;;;6.50;99.90;;;;;;6061239;23;98514;-75
2023/04/19 05:06:53;;;;;;;9.43;6.35;;;6.60;99.90;;;;;;6061620;23;97768;-75
2023/04/19 05:09:24;;;;;;;9.25;6.85;;;6.60;99.90;;;;;;6060542;23;101237;-75
2023/04/19 05:11:51;;;;;;;7.60;5.70;;;6.70;99.90;;;;;;6060732;23;101232;-75
2023/04/19 05:14:18;;;;;;;10.88;6.53;;;6.60;99.90;;;;;;6036300;23;99245;-75
2023/04/19 05:16:45;;;;;;;8.65;6.30;;;6.70;99.90;;;;;;6061107;23;98593;-75
2023/04/19 05:19:12;;;;;;;8.65;6.22;;;6.70;99.90;;;;;;6036298;23;101546;-75
2023/04/19 05:21:45;;;;;;;8.95;6.90;;;6.70;99.90;;;;;;6060913;23;101385;-75
2023/04/19 05:24:13;;;;;;;7.53;5.50;;;6.80;99.90;;;;;;6036899;23;98545;-80
2023/04/19 05:26:41;;;;;;;6.28;5.68;;;7.00;99.90;;;;;;6060904;23;99265;-74
2023/04/19 05:29:08;;;;;;;6.88;5.95;;;7.40;99.90;;;;;;6060321;23;101219;-76
2023/04/19 05:31:44;;;;;;;7.47;5.25;;;8.10;99.90;;;;;;6038685;23;101410;-75
2023/04/19 05:34:17;;;;;;;7.95;5.13;;;8.80;99.90;;;;;;6038210;23;98540;-77
2023/04/19 05:36:47;;;;;;;7.32;5.70;;;9.50;99.90;;;;;;6060910;23;98545;-73
2023/04/19 05:39:14;;;;;;;7.65;5.43;;;9.90;99.90;;;;;;6035694;23;102460;-73
2023/04/19 05:41:42;;;;;;;6.25;5.10;;;10.20;99.90;;;;;;6059832;23;102179;-73
2023/04/19 05:44:09;;;;;;;7.65;5.22;;;10.50;99.50;;;;;;6060874;23;98485;-74
2023/04/19 05:46:36;;;;;;;8.45;5.78;;;10.50;99.70;;;;;;6061156;23;98527;-73
2023/04/19 05:49:04;;;;;;;6.70;6.00;;;10.70;99.50;;;;;;6036189;23;101263;-73
2023/04/19 05:52:00;;;;;;;7.25;5.70;;;10.90;98.90;;;;;;6015798;23;98789;-73
2023/04/19 05:54:39;;;;;;;6.95;5.60;;;10.80;98.60;;;;;;6060829;23;98570;-74
2023/04/19 05:57:06;;;;;;;6.95;5.32;;;10.50;98.50;;;;;;6060852;23;97810;-74
2023/04/19 05:59:33;;;;;;;6.90;5.95;;;10.60;98.60;;;;;;6060227;23;101984;-74
2023/04/19 06:02:00;;;;;;;8.55;5.22;;;10.90;98.40;;;;;;6036088;23;101398;-73
2023/04/19 06:04:27;;;;;;;7.90;5.25;;;11.10;97.60;;;;;;6060284;23;99809;-73
2023/04/19 06:06:54;;;;;;;6.25;4.80;;;11.40;97.20;;;;;;6060869;23;98595;-73
2023/04/19 06:09:21;;;;;;;6.25;4.72;;;11.70;96.80;;;;;;6059722;23;102101;-74
2023/04/19 06:11:48;;;;;;;8.27;4.97;;;11.60;96.70;;;;;;6060724;23;98859;-73
2023/04/19 06:14:17;;;;;;;6.90;5.55;;;11.60;97.00;;;;;;6060828;23;98540;-73
2023/04/19 06:16:45;;;;;;;6.10;4.78;;;11.40;96.60;;;;;;6060772;23;98585;-73
2023/04/19 06:19:12;;;;;;;5.05;4.55;;;11.20;97.20;;;;;;6062043;23;99318;-73
2023/04/19 06:21:39;;;;;;;5.80;4.68;;;11.40;96.50;;;;;;6062422;23;99005;-74
2023/04/19 06:24:06;;;;;;;4.93;4.43;;;11.90;96.20;;;;;;6060401;23;98494;-73
2023/04/19 06:26:33;;;;;;;6.53;4.72;;;12.20;95.80;;;;;;6062574;23;98400;-74
2023/04/19 06:29:00;;;;;;;4.80;4.28;;;12.30;95.60;;;;;;6060128;23;102123;-73
2023/04/19 06:31:27;;;;;;;7.25;4.40;;;12.30;95.30;;;;;;6061617;23;99728;-73
2023/04/19 06:33:54;;;;;;;5.95;4.30;;;12.50;94.90;;;;;;6085227;23;98626;-74
2023/04/19 06:36:21;;;;;;;5.57;4.10;;;12.60;94.90;;;;;;6062025;23;98502;-73
2023/04/19 06:38:49;;;;;;;5.38;4.32;;;12.60;94.40;;;;;;6059827;23;102758;-73
2023/04/19 06:41:16;;;;;;;6.57;4.63;;;12.30;94.30;;;;;;6060110;23;98900;-73
2023/04/19 06:43:43;;;;;;;4.85;4.35;;;12.10;94.50;;;;;;6062408;23;98504;-74
2023/04/19 06:46:13;;;;;;;5.43;4.45;;;11.70;94.90;;;;;;6062435;23;97867;-74
2023/04/19 06:48:40;;;;;;;5.35;4.30;;;11.50;95.10;;;;;;6061888;23;99223;-73
2023/04/19 06:51:08;;;;;;;6.30;4.10;;;11.40;95.30;;;;;;6035820;23;102248;-73
2023/04/19 06:53:35;;;;;;;5.10;3.80;;;11.30;95.40;;;;;;6060939;23;99230;-73
2023/04/19 06:56:03;;;;;;;4.60;4.15;;;11.20;95.40;;;;;;6060823;23;98577;-73
2023/04/19 06:58:31;;;;;;;4.70;3.78;;;11.30;95.40;;;;;;6061153;23;99161;-73
2023/04/19 07:01:00;;;;;;;5.90;3.80;;;11.60;95.30;;;;;;6061534;23;99095;-74
2023/04/19 07:03:28;;;;;;;4.47;3.80;;;11.80;94.50;;;;;;6061738;23;98502;-73
2023/04/19 07:05:55;;;;;;;3.50;3.20;;;12.00;94.50;;;;;;6061731;23;98542;-74
2023/04/19 07:08:23;;;;;;;4.15;3.38;;;12.40;94.00;;;;;;6036679;23;100309;-74
2023/04/19 07:10:55;;;;;;;4.65;3.65;;;12.60;92.80;;;;;;6062290;23;101570;-74
2023/04/19 07:13:22;;;;;;;3.50;3.20;;;12.70;93.00;;;;;;6063088;23;98435;-74
2023/04/19 07:15:49;;;;;;;5.38;3.63;;;12.90;92.80;;;;;;6085756;23;99070;-73
2023/04/19 07:18:16;;;;;;;4.35;3.95;;;13.30;92.70;;;;;;6085061;23;100031;-73
2023/04/19 07:20:47;;;;;;;3.55;3.22;;;13.80;91.80;;;;;;6085744;23;99849;-74
2023/04/19 07:23:14;;;;;;;3.63;3.30;;;14.10;91.30;;;;;;6085990;23;98603;-73
2023/04/19 07:25:41;;;;;;;4.75;3.33;;;14.20;90.00;;;;;;6063395;23;98462;-73
2023/04/19 07:28:08;;;;;;;4.38;3.72;;;14.40;90.10;;;;;;6062934;23;101028;-73
2023/04/19 07:30:36;;;;;;;4.07;3.70;;;14.40;88.90;;;;;;6062849;23;99131;-73
2023/04/19 07:33:07;;;;;;;5.00;3.60;;;14.40;89.80;;;;;;6063340;23;98455;-73
2023/04/19 07:35:34;;;;;;;3.92;3.60;;;14.30;89.70;;;;;;6061871;23;97750;-74
2023/04/19 07:38:01;;;;;;;4.07;3.60;;;14.50;90.10;;;;;;6062813;23;99540;-74
2023/04/19 07:40:28;;;;;;;4.28;3.40;;;14.50;87.30;;;;;;6060650;23;101602;-74
2023/04/19 07:42:55;;;;;;;4.13;3.70;;;14.40;88.00;;;;;;6062608;23;99202;-74
2023/04/19 07:45:22;;;;;;;3.90;3.50;;;14.50;87.50;;;;;;6061520;23;98612;-73
2023/04/19 07:47:49;;;;;;;4.88;3.90;;;14.60;88.10;;;;;;6085649;23;99576;-74
2023/04/19 07:50:18;;;;;;;5.20;3.75;;;14.60;86.70;;;;;;6061153;23;99176;-73
2023/04/19 07:52:47;;;;;;;3.63;3.33;;;14.80;85.90;;;;;;6061195;23;98470;-74
2023/04/19 07:55:14;;;;;;;4.60;3.67;;;15.00;85.50;;;;;;6061707;23;98482;-73
2023/04/19 07:57:52;;;;;;;4.10;3.60;;;15.30;84.10;;;;;;6061337;23;101732;-74
2023/04/19 08:00:22;;;;;;;4.15;3.85;;;15.60;82.70;;;;;;6062842;23;98990;-74
2023/04/19 08:02:49;;;;;;;4.10;3.70;;;16.20;80.80;;;;;;6085638;23;98496;-74
2023/04/19 08:05:17;;;;;;;4.85;3.67;;;16.90;80.00;;;;;;6060942;23;98548;-74
2023/04/19 08:07:44;;;;;;;4.20;3.90;;;17.80;77.80;;;;;;6084938;23;102800;-74
2023/04/19 08:10:11;;;;;;;3.78;3.35;;;18.50;74.40;;;;;;6062455;23;106163;-74
2023/04/19 08:12:38;;;;;;;3.55;3.25;;;18.80;71.80;;;;;;6062919;23;98450;-74
2023/04/19 08:15:13;;;;;;;3.80;3.45;;;19.10;69.50;;;;;;6063218;23;99043;-74
2023/04/19 08:18:06;;;;;;;3.47;3.15;;;19.40;67.80;;;;;;6040892;23;102388;-73
2023/04/19 08:20:33;;;;;;;;;;;19.80;65.30;;;;;;6085708;23;98962;-74
2023/04/19 08:23:00;;;;;;;3.35;3.05;;;18.90;64.60;;;;;;6038883;23;98950;-74
2023/04/19 08:25:36;;;;;;;3.28;3.08;;;19.20;64.50;;;;;;6061778;23;97738;-74
2023/04/19 08:28:04;;;;;;;3.22;2.90;;;19.60;63.60;;;;;;6062464;23;99263;-74
2023/04/19 08:30:31;;;;;;;2.95;2.58;;;19.60;60.80;;;;;;6062245;23;99008;-74
2023/04/19 08:32:58;;;;;;;2.78;2.58;;;19.60;62.50;;;;;;6060809;23;99257;-74
2023/04/19 08:35:26;;;;;;;2.95;2.70;;;19.40;60.40;;;;;;6062892;23;98451;-74
2023/04/19 08:37:53;;;;;;;2.70;2.50;;;19.70;61.90;;;;;;6060701;23;101754;-74
2023/04/19 08:40:20;;;;;;;2.78;2.58;;;19.40;60.50;;;;;;6060626;23;101644;-74
2023/04/19 08:42:47;;;;;;;2.83;2.63;;;19.10;61.90;;;;;;6063087;23;98496;-74
2023/04/19 08:45:15;;;;;;;2.53;2.22;;;19.20;62.10;;;;;;6085800;23;98515;-74
2023/04/19 08:47:55;;;;;;;2.53;2.33;;;19.10;60.80;;;;;;6060907;23;102683;-74
2023/04/19 08:50:27;;;;;;;2.55;2.35;;;18.50;60.10;;;;;;6060981;23;101412;-71
2023/04/19 08:53:01;;;;;;;2.40;2.20;;;18.10;60.70;;;;;;6062803;23;98510;-71
2023/04/19 08:55:47;;;;;;;2.28;2.08;;;17.60;59.90;;;;;;6061479;23;98474;-71
2023/04/19 08:58:34;;;;;;;2.50;2.03;;;17.00;61.10;;;;;;6059891;23;100960;-71
2023/04/19 09:01:04;;;;;;;2.90;2.22;;;16.30;61.80;;;;;;6060428;23;102196;-71
2023/04/19 09:03:32;;;;;;;3.88;2.20;;;15.70;62.90;;;;;;6062667;23;98436;-71
2023/04/19 09:06:07;;;;;;;3.50;2.25;;;15.30;64.60;;;;;;6061335;23;98494;-71
2023/04/19 09:08:34;;;;;;;4.38;2.55;;;14.80;64.60;;;;;;6062471;23;99102;-71
2023/04/19 09:11:01;;;;;;;2.13;1.95;;;14.60;65.20;;;;;;6060671;23;101770;-71
2023/04/19 09:13:28;;;;;;;3.08;2.45;;;14.40;65.30;;;;;;6085390;23;99016;-71
2023/04/19 09:15:56;;;;;;;2.40;2.20;;;14.30;67.20;;;;;;6061454;23;97807;-71
2023/04/19 09:18:26;;;;;;;5.03;2.53;;;14.10;67.20;;;;;;6060906;23;99360;-71
2023/04/19 09:20:56;;;;;;;2.40;2.20;;;14.00;66.70;;;;;;6060973;23;99103;-71
2023/04/19 09:23:24;;;;;;;4.47;2.47;;;13.90;68.20;;;;;;6060733;23;99581;-71
2023/04/19 09:25:55;;;;;;;2.78;2.10;;;13.80;69.30;;;;;;6062509;23;98478;-71
2023/04/19 09:28:58;;;;;;;1.92;1.80;;;13.90;69.70;;;;;;6062112;23;99378;-71
2023/04/19 09:31:26;;;;;;;3.78;2.25;;;13.90;69.40;;;;;;6062439;23;99054;-71
2023/04/19 09:34:15;;;;;;;3.70;2.00;;;13.70;67.40;;;;;;6062764;23;98440;-71
2023/04/19 09:36:42;;;;;;;2.47;2.28;;;13.70;66.60;;;;;;6062431;23;98515;-71
2023/04/19 09:39:09;;;;;;;3.10;2.33;;;13.70;67.60;;;;;;6084985;23;99315;-71
2023/04/19 09:41:53;;;;;;;2.45;2.25;;;13.70;66.10;;;;;;6060994;23;98889;-71
2023/04/19 09:44:20;;;;;;;3.75;2.10;;;13.70;66.50;;;;;;6061387;23;99110;-71
2023/04/19 09:46:51;;;;;;;2.30;2.08;;;13.60;67.20;;;;;;6060841;23;98600;-71
2023/04/19 09:49:25;;;;;;;3.20;2.05;;;13.60;66.10;;;;;;6061723;23;100027;-71
2023/04/19 09:52:13;;;;;;;3.38;2.10;;;13.60;67.70;;;;;;6060564;23;102205;-71
2023/04/19 09:54:41;;;;;;;3.35;2.40;;;13.60;68.00;;;;;;6060091;23;98505;-71
2023/04/19 09:57:08;;;;;;;2.78;1.92;;;13.70;66.60;;;;;;6062594;23;98478;-71
2023/04/19 09:59:35;;;;;;;2.75;1.85;;;13.80;66.90;;;;;;6062000;23;99237;-73
2023/04/19 10:02:03;;;;;;;2.30;2.10;;;13.70;67.30;;;;;;6036126;23;101604;-73
2023/04/19 10:04:30;;;;;;;4.18;2.03;;;13.80;68.10;;;;;;6062597;23;98536;-74
2023/04/19 10:07:16;;;;;;;2.00;1.90;;;13.80;67.30;;;;;;6061815;23;97702;-73
2023/04/19 10:09:48;;;;;;;4.80;2.10;;;13.80;65.90;;;;;;6084067;23;99161;-73
2023/04/19 10:12:23;;;;;;;2.20;2.00;;;13.90;65.50;;;;;;6062081;23;99017;-74
2023/04/19 10:15:12;;;;;;;2.75;2.17;;;13.90;65.30;;;;;;6060871;23;99256;-74
2023/04/19 10:17:40;;;;;;;2.75;2.22;;;13.90;66.50;;;;;;6062194;23;98429;-73
2023/04/19 10:20:16;;;;;;;4.45;2.20;;;13.90;66.00;;;;;;6062039;23;99338;-74
2023/04/19 10:22:43;;;;;;;2.90;1.92;;;14.00;65.70;;;;;;6060089;23;101568;-74
2023/04/19 10:25:14;;;;;;;2.35;2.15;;;14.10;66.40;;;;;;6060970;23;98498;-74
2023/04/19 10:27:47;;;;;;;2.17;1.92;;;14.10;66.40;;;;;;6062084;23;98547;-74
2023/04/19 10:30:17;;;;;;;1.40;1.30;;;14.10;66.60;;;;;;6065256;23;99418;-74
2023/04/19 10:32:51;;;;;;;3.50;1.85;;;14.10;66.20;;;;;;6065440;23;99507;-73
2023/04/19 10:35:23;;;;;;;2.13;1.92;;;14.20;65.20;;;;;;6065643;23;98431;-74
2023/04/19 10:38:12;;;;;;;1.75;1.65;;;14.20;64.70;;;;;;6065346;23;98645;-73
2023/04/19 10:40:59;;;;;;;2.00;1.90;;;14.30;66.70;;;;;;6062602;23;107873;-74
2023/04/19 10:43:33;;;;;;;2.20;2.00;;;14.40;66.70;;;;;;6065045;23;99939;-74
2023/04/19 10:46:15;;;;;;;3.58;2.00;;;14.40;65.30;;;;;;6065191;23;98373;-74
2023/04/19 10:48:52;;;;;;;1.80;1.60;;;14.40;65.60;;;;;;6063595;23;98546;-74
2023/04/19 10:51:22;;;;;;;1.75;1.65;;;14.40;65.10;;;;;;6063309;23;102061;-74
2023/04/19 10:54:03;;;;;;;1.77;1.67;;;14.30;65.20;;;;;;6064375;23;103060;-74
2023/04/19 10:56:33;;;;;;;2.45;1.60;;;14.40;66.60;;;;;;6065527;23;98472;-74
2023/04/19 11:01:38;;;;;;;4.32;1.95;;;14.40;65.50;;;;;;6064896;23;99240;-74
2023/04/19 11:04:07;;;;;;;2.10;1.85;;;14.50;64.90;;;;;;6064613;23;99005;-74
2023/04/19 11:06:36;;;;;;;2.30;2.10;;;14.40;66.00;;;;;;6063421;23;99177;-74
2023/04/19 11:09:05;;;;;;;3.05;2.17;;;14.50;64.90;;;;;;6063165;23;98544;-74
2023/04/19 11:11:36;;;;;;;2.70;2.03;;;14.50;65.00;;;;;;6063355;23;100164;-73
2023/04/19 11:14:06;;;;;;;2.08;1.90;;;14.60;66.80;;;;;;6064513;23;99100;-73
2023/04/19 11:16:33;;;;;;;2.42;2.03;;;14.50;65.20;;;;;;6065362;23;99021;-74
2023/04/19 11:19:18;;;;;;;2.05;1.95;;;14.60;66.30;;;;;;6065225;23;98485;-74
2023/04/19 11:21:46;;;;;;;3.20;2.25;;;14.70;65.20;;;;;;6038662;23;103608;-74
2023/04/19 11:24:17;;;;;;;2.55;2.33;;;14.60;66.60;;;;;;6063226;23;101691;-74
2023/04/19 11:26:45;;;;;;;5.38;2.85;;;14.70;66.30;;;;;;6063631;23;98579;-74
2023/04/19 11:29:12;;;;;;;6.35;2.97;;;14.60;66.90;;;;;;6064855;23;98520;-74
2023/04/19 11:31:39;;;;;;;2.80;2.22;;;14.70;67.90;;;;;;6062341;23;102484;-74
2023/04/19 11:34:06;;;;;;;4.35;2.95;;;14.70;68.60;;;;;;6062396;23;102247;-74
2023/04/19 11:36:45;;;;;;;2.92;2.70;;;14.60;66.70;;;;;;6087927;23;98903;-74
2023/04/19 11:39:13;;;;;;;4.88;2.65;;;14.60;67.10;;;;;;6061556;23;98553;-74
2023/04/19 11:41:40;;;;;;;4.03;2.72;;;14.60;68.20;;;;;;6062358;23;109390;-74
2023/04/19 11:44:19;;;;;;;3.08;2.72;;;14.60;68.60;;;;;;6060861;23;101505;-74
2023/04/19 11:46:59;;;;;;;3.42;2.58;;;14.70;69.30;;;;;;6063349;23;98570;-74
2023/04/19 11:49:31;;;;;;;3.35;2.65;;;14.80;68.70;;;;;;6063617;23;97724;-73
2023/04/19 11:51:59;;;;;;;3.38;2.92;;;14.80;69.20;;;;;;6061099;23;99322;-74
2023/04/19 11:54:29;;;;;;;3.58;2.88;;;14.70;69.50;;;;;;6061058;23;100052;-74
2023/04/19 11:56:58;;;;;;;3.55;2.53;;;14.80;70.20;;;;;;6062560;23;99257;-74
2023/04/19 11:59:25;;;;;;;3.25;2.95;;;14.70;69.30;;;;;;6063052;23;98473;-74
2023/04/19 12:01:52;;;;;;;3.90;3.00;;;14.70;69.80;;;;;;6060823;23;100401;-74
2023/04/19 12:04:20;;;;;;;4.43;2.83;;;14.80;69.30;;;;;;6060927;23;101833;-73
2023/04/19 12:06:58;;;;;;;4.15;2.70;;;14.80;69.40;;;;;;6062994;23;98476;-74
2023/04/19 12:09:26;;;;;;;3.30;3.00;;;14.80;69.40;;;;;;6063187;23;98448;-74
2023/04/19 12:11:53;;;;;;;3.55;2.85;;;14.80;69.70;;;;;;6085107;23;99377;-74
2023/04/19 12:14:21;;;;;;;3.47;2.97;;;14.80;69.30;;;;;;6063025;23;98817;-73
2023/04/19 12:17:09;;;;;;;3.30;3.00;;;14.90;69.20;;;;;;6060622;23;99256;-74
2023/04/19 12:19:46;;;;;;;3.33;2.55;;;14.90;69.90;;;;;;6061193;23;98628;-74
2023/04/19 12:22:15;;;;;;;4.63;3.33;;;15.00;71.00;;;;;;6084643;23;100115;-73
2023/04/19 12:24:42;;;;;;;3.33;2.97;;;15.10;71.40;;;;;;6060905;23;99612;-74
2023/04/19 12:27:10;;;;;;;2.95;2.75;;;15.10;69.50;;;;;;6062920;23;98960;-74
2023/04/19 12:29:38;;;;;;;2.58;2.38;;;15.20;68.30;;;;;;6061095;23;98602;-74
2023/04/19 12:32:05;;;;;;;4.38;2.70;;;15.20;69.50;;;;;;6061538;23;116422;-74
2023/04/19 12:34:32;;;;;;;3.25;2.88;;;15.40;71.50;;;;;;6062508;23;99008;-75
2023/04/19 12:36:59;;;;;;;3.13;2.80;;;15.50;71.40;;;;;;6085609;23;98480;-74
2023/04/19 12:39:27;;;;;;;3.15;2.80;;;15.30;69.70;;;;;;6078565;23;97812;-74
2023/04/19 12:41:55;;;;;;;3.78;2.92;;;15.30;70.70;;;;;;6066104;23;99570;-74
2023/04/19 12:44:22;;;;;;;5.82;3.00;;;15.30;71.20;;;;;;6091795;23;98716;-74
2023/04/19 12:46:49;;;;;;;3.47;2.78;;;15.30;70.00;;;;;;6041571;23;99274;-74
2023/04/19 12:49:18;;;;;;;4.95;2.17;;;15.30;69.30;;;;;;6092135;23;98589;-74
2023/04/19 12:51:46;;;;;;;3.10;2.55;;;15.30;69.10;;;;;;6065762;23;99322;-74
2023/04/19 12:54:14;;;;;;;4.00;3.30;;;15.40;69.80;;;;;;6065773;23;99204;-74
2023/04/19 12:56:41;;;;;;;3.75;2.80;;;15.50;71.40;;;;;;6041816;23;98544;-74
2023/04/19 12:59:08;;;;;;;4.50;2.75;;;15.60;71.60;;;;;;6041953;23;98570;-74
2023/04/19 13:01:35;;;;;;;3.20;2.90;;;15.70;71.20;;;;;;6041456;23;101841;-74